sensor_id;sensor_type;location;lat;lon;timestamp;P1;durP1;ratioP1;P2;durP2;ratioP2
60054;SDS011;45930;53.514;55.904;2023-04-21T00:00:26;10.60;;;5.38;;
60054;SDS011;45930;53.514;55.904;2023-04-21T00:01:27;8.55;;;5.85;;
60054;SDS011;45930;53.514;55.904;2023-04-21T00:02:29;9.10;;;5.72;;
60054;SDS011;45930;53.514;55.904;2023-04-21T00:03:30;8.75;;;5.32;;
60054;SDS011;45930;53.514;55.904;2023-04-21T00:04:32;20.77;;;7.15;;
60054;SDS011;45930;53.514;55.904;2023-04-21T00:05:33;10.23;;;5.28;;
60054;SDS011;45930;53.514;55.904;2023-04-21T00:06:34;10.75;;;5.35;;
60054;SDS011;45930;53.514;55.904;2023-04-21T00:07:37;10.32;;;5.25;;
60054;SDS011;45930;53.514;55.904;2023-04-21T00:08:38;12.43;;;5.50;;
60054;SDS011;45930;53.514;55.904;2023-04-21T00:09:40;10.05;;;5.32;;
60054;SDS011;45930;53.514;55.904;2023-04-21T00:10:41;6.28;;;4.70;;
60054;SDS011;45930;53.514;55.904;2023-04-21T00:11:43;11.57;;;5.72;;
60054;SDS011;45930;53.514;55.904;2023-04-21T00:12:43;10.57;;;5.55;;
60054;SDS011;45930;53.514;55.904;2023-04-21T00:13:44;12.18;;;5.55;;
60054;SDS011;45930;53.514;55.904;2023-04-21T00:14:45;8.48;;;5.15;;
60054;SDS011;45930;53.514;55.904;2023-04-21T00:15:46;11.15;;;5.70;;
60054;SDS011;45930;53.514;55.904;2023-04-21T00:16:47;15.05;;;6.45;;
60054;SDS011;45930;53.514;55.904;2023-04-21T00:17:52;10.05;;;5.93;;
60054;SDS011;45930;53.514;55.904;2023-04-21T00:18:52;9.80;;;6.07;;
60054;SDS011;45930;53.514;55.904;2023-04-21T00:19:53;12.82;;;6.13;;
60054;SDS011;45930;53.514;55.904;2023-04-21T00:20:54;11.73;;;6.25;;
60054;SDS011;45930;53.514;55.904;2023-04-21T00:21:56;12.73;;;6.60;;
60054;SDS011;45930;53.514;55.904;2023-04-21T00:23:00;16.35;;;7.25;;
60054;SDS011;45930;53.514;55.904;2023-04-21T00:24:01;13.68;;;7.28;;
60054;SDS011;45930;53.514;55.904;2023-04-21T00:25:02;8.43;;;6.88;;
60054;SDS011;45930;53.514;55.904;2023-04-21T00:26:05;12.63;;;7.55;;
60054;SDS011;45930;53.514;55.904;2023-04-21T00:27:05;12.82;;;7.05;;
60054;SDS011;45930;53.514;55.904;2023-04-21T00:28:06;11.15;;;7.30;;
60054;SDS011;45930;53.514;55.904;2023-04-21T00:29:07;11.80;;;6.95;;
60054;SDS011;45930;53.514;55.904;2023-04-21T00:30:08;13.65;;;7.25;;
60054;SDS011;45930;53.514;55.904;2023-04-21T00:31:09;14.82;;;6.95;;
60054;SDS011;45930;53.514;55.904;2023-04-21T00:32:10;10.38;;;6.95;;
60054;SDS011;45930;53.514;55.904;2023-04-21T00:33:11;10.65;;;7.20;;
60054;SDS011;45930;53.514;55.904;2023-04-21T00:34:11;15.52;;;6.65;;
60054;SDS011;45930;53.514;55.904;2023-04-21T00:35:12;14.90;;;7.03;;
60054;SDS011;45930;53.514;55.904;2023-04-21T00:36:13;9.98;;;5.95;;
60054;SDS011;45930;53.514;55.904;2023-04-21T00:37:14;10.55;;;6.10;;
60054;SDS011;45930;53.514;55.904;2023-04-21T00:38:15;12.45;;;6.82;;
60054;SDS011;45930;53.514;55.904;2023-04-21T00:39:15;12.52;;;6.18;;
60054;SDS011;45930;53.514;55.904;2023-04-21T00:40:16;10.55;;;5.65;;
60054;SDS011;45930;53.514;55.904;2023-04-21T00:41:17;8.50;;;5.47;;
60054;SDS011;45930;53.514;55.904;2023-04-21T00:42:18;12.18;;;5.95;;
60054;SDS011;45930;53.514;55.904;2023-04-21T00:43:19;9.57;;;5.97;;
60054;SDS011;45930;53.514;55.904;2023-04-21T00:44:20;9.07;;;5.43;;
60054;SDS011;45930;53.514;55.904;2023-04-21T00:45:20;8.32;;;5.22;;
60054;SDS011;45930;53.514;55.904;2023-04-21T00:46:21;9.18;;;6.05;;
60054;SDS011;45930;53.514;55.904;2023-04-21T00:47:22;13.70;;;6.95;;
60054;SDS011;45930;53.514;55.904;2023-04-21T00:48:23;12.68;;;6.18;;
60054;SDS011;45930;53.514;55.904;2023-04-21T00:49:24;10.02;;;5.85;;
60054;SDS011;45930;53.514;55.904;2023-04-21T00:50:25;9.90;;;5.57;;
60054;SDS011;45930;53.514;55.904;2023-04-21T00:51:26;9.57;;;5.68;;
60054;SDS011;45930;53.514;55.904;2023-04-21T00:52:28;10.07;;;6.50;;
60054;SDS011;45930;53.514;55.904;2023-04-21T00:53:29;12.77;;;6.80;;
60054;SDS011;45930;53.514;55.904;2023-04-21T00:54:31;9.25;;;6.03;;
60054;SDS011;45930;53.514;55.904;2023-04-21T00:55:32;10.05;;;5.88;;
60054;SDS011;45930;53.514;55.904;2023-04-21T00:56:33;11.10;;;6.93;;
60054;SDS011;45930;53.514;55.904;2023-04-21T00:57:35;7.60;;;6.38;;
60054;SDS011;45930;53.514;55.904;2023-04-21T00:58:40;10.35;;;6.05;;
60054;SDS011;45930;53.514;55.904;2023-04-21T00:59:41;8.27;;;5.68;;
60054;SDS011;45930;53.514;55.904;2023-04-21T01:00:43;8.70;;;5.72;;
60054;SDS011;45930;53.514;55.904;2023-04-21T01:01:44;8.93;;;5.65;;
60054;SDS011;45930;53.514;55.904;2023-04-21T01:02:45;11.25;;;5.82;;
60054;SDS011;45930;53.514;55.904;2023-04-21T01:03:46;8.27;;;5.93;;
60054;SDS011;45930;53.514;55.904;2023-04-21T01:04:47;11.77;;;5.90;;
60054;SDS011;45930;53.514;55.904;2023-04-21T01:05:48;8.00;;;5.75;;
60054;SDS011;45930;53.514;55.904;2023-04-21T01:06:49;11.93;;;6.18;;
60054;SDS011;45930;53.514;55.904;2023-04-21T01:07:51;11.07;;;6.05;;
60054;SDS011;45930;53.514;55.904;2023-04-21T01:08:52;11.88;;;5.95;;
60054;SDS011;45930;53.514;55.904;2023-04-21T01:09:55;10.30;;;5.90;;
60054;SDS011;45930;53.514;55.904;2023-04-21T01:10:55;15.85;;;5.90;;
60054;SDS011;45930;53.514;55.904;2023-04-21T01:12:02;8.68;;;5.65;;
60054;SDS011;45930;53.514;55.904;2023-04-21T01:13:04;10.52;;;5.93;;
60054;SDS011;45930;53.514;55.904;2023-04-21T01:14:05;11.15;;;5.72;;
60054;SDS011;45930;53.514;55.904;2023-04-21T01:15:06;11.60;;;5.93;;
60054;SDS011;45930;53.514;55.904;2023-04-21T01:16:07;10.73;;;5.40;;
60054;SDS011;45930;53.514;55.904;2023-04-21T01:17:08;8.23;;;5.05;;
60054;SDS011;45930;53.514;55.904;2023-04-21T01:18:09;8.82;;;5.20;;
60054;SDS011;45930;53.514;55.904;2023-04-21T01:19:11;15.02;;;5.78;;
60054;SDS011;45930;53.514;55.904;2023-04-21T01:20:12;10.50;;;5.75;;
60054;SDS011;45930;53.514;55.904;2023-04-21T01:21:15;10.02;;;5.95;;
60054;SDS011;45930;53.514;55.904;2023-04-21T01:22:16;11.15;;;5.70;;
60054;SDS011;45930;53.514;55.904;2023-04-21T01:23:17;10.35;;;5.97;;
60054;SDS011;45930;53.514;55.904;2023-04-21T01:24:20;10.93;;;6.68;;
60054;SDS011;45930;53.514;55.904;2023-04-21T01:25:21;8.02;;;5.75;;
60054;SDS011;45930;53.514;55.904;2023-04-21T01:26:25;10.13;;;5.82;;
60054;SDS011;45930;53.514;55.904;2023-04-21T01:27:25;7.80;;;5.78;;
60054;SDS011;45930;53.514;55.904;2023-04-21T01:28:26;9.75;;;5.85;;
60054;SDS011;45930;53.514;55.904;2023-04-21T01:29:27;10.75;;;6.68;;
60054;SDS011;45930;53.514;55.904;2023-04-21T01:30:32;12.05;;;6.35;;
60054;SDS011;45930;53.514;55.904;2023-04-21T01:31:33;13.82;;;6.22;;
60054;SDS011;45930;53.514;55.904;2023-04-21T01:32:34;9.15;;;6.10;;
60054;SDS011;45930;53.514;55.904;2023-04-21T01:33:35;9.25;;;6.00;;
60054;SDS011;45930;53.514;55.904;2023-04-21T01:34:38;9.30;;;6.38;;
60054;SDS011;45930;53.514;55.904;2023-04-21T01:35:40;11.68;;;6.30;;
60054;SDS011;45930;53.514;55.904;2023-04-21T01:36:41;13.05;;;6.38;;
60054;SDS011;45930;53.514;55.904;2023-04-21T01:37:42;10.57;;;5.93;;
60054;SDS011;45930;53.514;55.904;2023-04-21T01:38:43;8.23;;;6.03;;
60054;SDS011;45930;53.514;55.904;2023-04-21T01:39:44;9.48;;;6.18;;
60054;SDS011;45930;53.514;55.904;2023-04-21T01:40:52;10.55;;;6.18;;
60054;SDS011;45930;53.514;55.904;2023-04-21T01:41:53;11.20;;;6.80;;
60054;SDS011;45930;53.514;55.904;2023-04-21T01:42:57;16.92;;;6.65;;
60054;SDS011;45930;53.514;55.904;2023-04-21T01:43:58;10.98;;;6.72;;
60054;SDS011;45930;53.514;55.904;2023-04-21T01:45:00;17.50;;;6.80;;
60054;SDS011;45930;53.514;55.904;2023-04-21T01:46:01;10.45;;;6.72;;
60054;SDS011;45930;53.514;55.904;2023-04-21T01:47:03;12.23;;;6.60;;
60054;SDS011;45930;53.514;55.904;2023-04-21T01:48:05;14.13;;;6.40;;
60054;SDS011;45930;53.514;55.904;2023-04-21T01:49:06;12.70;;;6.53;;
60054;SDS011;45930;53.514;55.904;2023-04-21T01:50:07;11.35;;;6.05;;
60054;SDS011;45930;53.514;55.904;2023-04-21T01:51:09;24.25;;;7.18;;
60054;SDS011;45930;53.514;55.904;2023-04-21T01:52:09;10.32;;;6.90;;
60054;SDS011;45930;53.514;55.904;2023-04-21T01:53:10;10.32;;;7.25;;
60054;SDS011;45930;53.514;55.904;2023-04-21T01:54:11;10.90;;;6.43;;
60054;SDS011;45930;53.514;55.904;2023-04-21T01:55:12;11.05;;;7.03;;
60054;SDS011;45930;53.514;55.904;2023-04-21T01:56:14;11.55;;;7.00;;
60054;SDS011;45930;53.514;55.904;2023-04-21T01:57:15;15.20;;;7.20;;
60054;SDS011;45930;53.514;55.904;2023-04-21T01:58:16;13.00;;;7.57;;
60054;SDS011;45930;53.514;55.904;2023-04-21T01:59:17;10.43;;;7.15;;
60054;SDS011;45930;53.514;55.904;2023-04-21T02:00:18;9.40;;;6.80;;
60054;SDS011;45930;53.514;55.904;2023-04-21T02:01:19;13.30;;;7.75;;
60054;SDS011;45930;53.514;55.904;2023-04-21T02:02:20;15.90;;;8.20;;
60054;SDS011;45930;53.514;55.904;2023-04-21T02:03:21;9.88;;;6.70;;
60054;SDS011;45930;53.514;55.904;2023-04-21T02:04:21;8.55;;;7.65;;
60054;SDS011;45930;53.514;55.904;2023-04-21T02:05:22;15.82;;;7.93;;
60054;SDS011;45930;53.514;55.904;2023-04-21T02:06:23;20.10;;;8.75;;
60054;SDS011;45930;53.514;55.904;2023-04-21T02:07:24;11.80;;;7.30;;
60054;SDS011;45930;53.514;55.904;2023-04-21T02:08:25;10.27;;;8.00;;
60054;SDS011;45930;53.514;55.904;2023-04-21T02:09:26;13.45;;;7.97;;
60054;SDS011;45930;53.514;55.904;2023-04-21T02:10:26;12.38;;;7.97;;
60054;SDS011;45930;53.514;55.904;2023-04-21T02:11:27;11.88;;;7.57;;
60054;SDS011;45930;53.514;55.904;2023-04-21T02:12:29;12.05;;;7.88;;
60054;SDS011;45930;53.514;55.904;2023-04-21T02:13:30;10.80;;;7.40;;
60054;SDS011;45930;53.514;55.904;2023-04-21T02:14:31;13.77;;;7.32;;
60054;SDS011;45930;53.514;55.904;2023-04-21T02:15:32;15.93;;;7.63;;
60054;SDS011;45930;53.514;55.904;2023-04-21T02:16:32;11.45;;;6.90;;
60054;SDS011;45930;53.514;55.904;2023-04-21T02:17:33;10.05;;;6.63;;
60054;SDS011;45930;53.514;55.904;2023-04-21T02:18:34;8.77;;;6.60;;
60054;SDS011;45930;53.514;55.904;2023-04-21T02:19:39;10.60;;;7.05;;
60054;SDS011;45930;53.514;55.904;2023-04-21T02:20:40;13.48;;;7.50;;
60054;SDS011;45930;53.514;55.904;2023-04-21T02:21:41;11.50;;;7.38;;
60054;SDS011;45930;53.514;55.904;2023-04-21T02:22:42;14.55;;;7.13;;
60054;SDS011;45930;53.514;55.904;2023-04-21T02:23:43;13.50;;;8.02;;
60054;SDS011;45930;53.514;55.904;2023-04-21T02:24:43;10.80;;;7.03;;
60054;SDS011;45930;53.514;55.904;2023-04-21T02:25:44;10.63;;;7.35;;
60054;SDS011;45930;53.514;55.904;2023-04-21T02:26:45;11.88;;;7.05;;
60054;SDS011;45930;53.514;55.904;2023-04-21T02:27:46;14.38;;;7.68;;
60054;SDS011;45930;53.514;55.904;2023-04-21T02:28:46;9.63;;;6.95;;
60054;SDS011;45930;53.514;55.904;2023-04-21T02:29:47;10.75;;;7.05;;
60054;SDS011;45930;53.514;55.904;2023-04-21T02:30:48;10.38;;;7.20;;
60054;SDS011;45930;53.514;55.904;2023-04-21T02:31:49;8.52;;;6.88;;
60054;SDS011;45930;53.514;55.904;2023-04-21T02:32:49;9.45;;;7.00;;
60054;SDS011;45930;53.514;55.904;2023-04-21T02:33:50;13.70;;;7.07;;
60054;SDS011;45930;53.514;55.904;2023-04-21T02:34:51;14.48;;;7.00;;
60054;SDS011;45930;53.514;55.904;2023-04-21T02:35:52;11.43;;;6.82;;
60054;SDS011;45930;53.514;55.904;2023-04-21T02:36:53;11.65;;;6.90;;
60054;SDS011;45930;53.514;55.904;2023-04-21T02:37:54;8.45;;;6.45;;
60054;SDS011;45930;53.514;55.904;2023-04-21T02:38:55;18.60;;;7.43;;
60054;SDS011;45930;53.514;55.904;2023-04-21T02:39:55;13.90;;;8.20;;
60054;SDS011;45930;53.514;55.904;2023-04-21T02:40:56;13.68;;;7.43;;
60054;SDS011;45930;53.514;55.904;2023-04-21T02:41:57;21.98;;;7.90;;
60054;SDS011;45930;53.514;55.904;2023-04-21T02:42:58;18.90;;;8.82;;
60054;SDS011;45930;53.514;55.904;2023-04-21T02:43:59;19.65;;;7.72;;
60054;SDS011;45930;53.514;55.904;2023-04-21T02:45:00;12.55;;;6.85;;
60054;SDS011;45930;53.514;55.904;2023-04-21T02:46:04;13.07;;;6.95;;
60054;SDS011;45930;53.514;55.904;2023-04-21T02:47:06;12.32;;;6.28;;
60054;SDS011;45930;53.514;55.904;2023-04-21T02:48:07;9.68;;;6.65;;
60054;SDS011;45930;53.514;55.904;2023-04-21T02:49:08;9.60;;;6.40;;
60054;SDS011;45930;53.514;55.904;2023-04-21T02:50:11;8.90;;;6.03;;
60054;SDS011;45930;53.514;55.904;2023-04-21T02:51:13;7.47;;;5.55;;
60054;SDS011;45930;53.514;55.904;2023-04-21T02:52:14;7.40;;;5.15;;
60054;SDS011;45930;53.514;55.904;2023-04-21T02:53:15;10.23;;;5.88;;
60054;SDS011;45930;53.514;55.904;2023-04-21T02:54:16;9.13;;;5.95;;
60054;SDS011;45930;53.514;55.904;2023-04-21T02:55:17;9.88;;;6.55;;
60054;SDS011;45930;53.514;55.904;2023-04-21T02:56:18;6.70;;;5.55;;
60054;SDS011;45930;53.514;55.904;2023-04-21T02:57:18;8.10;;;5.00;;
60054;SDS011;45930;53.514;55.904;2023-04-21T02:58:19;9.82;;;6.00;;
60054;SDS011;45930;53.514;55.904;2023-04-21T02:59:20;8.18;;;5.45;;
60054;SDS011;45930;53.514;55.904;2023-04-21T03:00:21;9.57;;;5.85;;
60054;SDS011;45930;53.514;55.904;2023-04-21T03:01:22;9.00;;;5.10;;
60054;SDS011;45930;53.514;55.904;2023-04-21T03:02:23;9.77;;;5.45;;
60054;SDS011;45930;53.514;55.904;2023-04-21T03:03:23;7.70;;;4.78;;
60054;SDS011;45930;53.514;55.904;2023-04-21T03:04:24;10.57;;;5.25;;
60054;SDS011;45930;53.514;55.904;2023-04-21T03:05:25;5.82;;;4.82;;
60054;SDS011;45930;53.514;55.904;2023-04-21T03:06:29;6.78;;;5.05;;
60054;SDS011;45930;53.514;55.904;2023-04-21T03:07:32;7.03;;;5.13;;
60054;SDS011;45930;53.514;55.904;2023-04-21T03:08:33;12.52;;;5.32;;
60054;SDS011;45930;53.514;55.904;2023-04-21T03:09:33;6.85;;;4.70;;
60054;SDS011;45930;53.514;55.904;2023-04-21T03:10:35;9.18;;;5.75;;
60054;SDS011;45930;53.514;55.904;2023-04-21T03:11:37;8.27;;;5.65;;
60054;SDS011;45930;53.514;55.904;2023-04-21T03:12:38;6.95;;;4.80;;
60054;SDS011;45930;53.514;55.904;2023-04-21T03:13:38;7.88;;;4.65;;
60054;SDS011;45930;53.514;55.904;2023-04-21T03:14:39;8.75;;;4.97;;
60054;SDS011;45930;53.514;55.904;2023-04-21T03:15:40;7.95;;;5.43;;
60054;SDS011;45930;53.514;55.904;2023-04-21T03:16:41;11.90;;;4.95;;
60054;SDS011;45930;53.514;55.904;2023-04-21T03:17:42;9.13;;;5.40;;
60054;SDS011;45930;53.514;55.904;2023-04-21T03:18:43;12.55;;;4.90;;
60054;SDS011;45930;53.514;55.904;2023-04-21T03:19:44;7.15;;;5.60;;
60054;SDS011;45930;53.514;55.904;2023-04-21T03:20:44;8.57;;;6.55;;
60054;SDS011;45930;53.514;55.904;2023-04-21T03:21:45;9.13;;;5.20;;
60054;SDS011;45930;53.514;55.904;2023-04-21T03:22:46;9.55;;;5.22;;
60054;SDS011;45930;53.514;55.904;2023-04-21T03:23:47;7.97;;;5.20;;
60054;SDS011;45930;53.514;55.904;2023-04-21T03:24:48;9.10;;;6.32;;
60054;SDS011;45930;53.514;55.904;2023-04-21T03:25:48;10.30;;;5.78;;
60054;SDS011;45930;53.514;55.904;2023-04-21T03:26:49;12.52;;;5.40;;
60054;SDS011;45930;53.514;55.904;2023-04-21T03:27:50;10.55;;;5.32;;
60054;SDS011;45930;53.514;55.904;2023-04-21T03:28:51;11.98;;;6.07;;
60054;SDS011;45930;53.514;55.904;2023-04-21T03:29:52;7.82;;;5.38;;
60054;SDS011;45930;53.514;55.904;2023-04-21T03:30:52;10.45;;;5.88;;
60054;SDS011;45930;53.514;55.904;2023-04-21T03:31:53;9.05;;;4.80;;
60054;SDS011;45930;53.514;55.904;2023-04-21T03:32:54;5.97;;;5.20;;
60054;SDS011;45930;53.514;55.904;2023-04-21T03:33:55;7.57;;;5.57;;
60054;SDS011;45930;53.514;55.904;2023-04-21T03:34:55;8.65;;;5.43;;
60054;SDS011;45930;53.514;55.904;2023-04-21T03:35:56;8.35;;;5.82;;
60054;SDS011;45930;53.514;55.904;2023-04-21T03:36:57;8.05;;;5.35;;
60054;SDS011;45930;53.514;55.904;2023-04-21T03:37:58;7.90;;;5.28;;
60054;SDS011;45930;53.514;55.904;2023-04-21T03:38:59;8.02;;;5.50;;
60054;SDS011;45930;53.514;55.904;2023-04-21T03:39:59;9.75;;;5.25;;
60054;SDS011;45930;53.514;55.904;2023-04-21T03:41:02;8.65;;;5.53;;
60054;SDS011;45930;53.514;55.904;2023-04-21T03:42:03;11.25;;;5.70;;
60054;SDS011;45930;53.514;55.904;2023-04-21T03:43:04;9.70;;;5.25;;
60054;SDS011;45930;53.514;55.904;2023-04-21T03:44:05;8.15;;;5.15;;
60054;SDS011;45930;53.514;55.904;2023-04-21T03:45:07;9.65;;;5.88;;
60054;SDS011;45930;53.514;55.904;2023-04-21T03:46:18;9.27;;;5.63;;
60054;SDS011;45930;53.514;55.904;2023-04-21T03:47:20;10.98;;;5.10;;
60054;SDS011;45930;53.514;55.904;2023-04-21T03:48:20;11.70;;;5.03;;
60054;SDS011;45930;53.514;55.904;2023-04-21T03:49:21;10.93;;;4.85;;
60054;SDS011;45930;53.514;55.904;2023-04-21T03:50:22;6.43;;;5.07;;
60054;SDS011;45930;53.514;55.904;2023-04-21T03:51:23;11.63;;;5.68;;
60054;SDS011;45930;53.514;55.904;2023-04-21T03:52:24;7.45;;;5.57;;
60054;SDS011;45930;53.514;55.904;2023-04-21T03:53:25;10.75;;;5.28;;
60054;SDS011;45930;53.514;55.904;2023-04-21T03:54:26;8.32;;;5.65;;
60054;SDS011;45930;53.514;55.904;2023-04-21T03:55:26;11.55;;;5.70;;
60054;SDS011;45930;53.514;55.904;2023-04-21T03:56:27;10.20;;;5.60;;
60054;SDS011;45930;53.514;55.904;2023-04-21T03:57:28;10.32;;;5.45;;
60054;SDS011;45930;53.514;55.904;2023-04-21T03:58:29;9.70;;;5.68;;
60054;SDS011;45930;53.514;55.904;2023-04-21T03:59:30;11.10;;;6.35;;
60054;SDS011;45930;53.514;55.904;2023-04-21T04:00:30;8.60;;;5.57;;
60054;SDS011;45930;53.514;55.904;2023-04-21T04:01:32;8.68;;;4.90;;
60054;SDS011;45930;53.514;55.904;2023-04-21T04:02:34;11.63;;;5.80;;
60054;SDS011;45930;53.514;55.904;2023-04-21T04:03:36;7.47;;;5.28;;
60054;SDS011;45930;53.514;55.904;2023-04-21T04:04:36;10.10;;;6.65;;
60054;SDS011;45930;53.514;55.904;2023-04-21T04:05:37;9.50;;;5.82;;
60054;SDS011;45930;53.514;55.904;2023-04-21T04:06:38;10.13;;;7.22;;
60054;SDS011;45930;53.514;55.904;2023-04-21T04:07:39;15.13;;;6.88;;
60054;SDS011;45930;53.514;55.904;2023-04-21T04:08:40;10.18;;;6.65;;
60054;SDS011;45930;53.514;55.904;2023-04-21T04:09:40;13.55;;;7.47;;
60054;SDS011;45930;53.514;55.904;2023-04-21T04:10:41;11.82;;;7.40;;
60054;SDS011;45930;53.514;55.904;2023-04-21T04:11:42;9.50;;;6.85;;
60054;SDS011;45930;53.514;55.904;2023-04-21T04:12:42;10.75;;;7.85;;
60054;SDS011;45930;53.514;55.904;2023-04-21T04:13:43;10.43;;;8.13;;
60054;SDS011;45930;53.514;55.904;2023-04-21T04:14:44;13.20;;;8.65;;
60054;SDS011;45930;53.514;55.904;2023-04-21T04:15:45;15.82;;;8.40;;
60054;SDS011;45930;53.514;55.904;2023-04-21T04:16:46;12.45;;;8.13;;
60054;SDS011;45930;53.514;55.904;2023-04-21T04:17:46;11.93;;;7.65;;
60054;SDS011;45930;53.514;55.904;2023-04-21T04:18:48;10.65;;;8.13;;
60054;SDS011;45930;53.514;55.904;2023-04-21T04:19:50;16.95;;;8.15;;
60054;SDS011;45930;53.514;55.904;2023-04-21T04:20:50;14.30;;;8.60;;
60054;SDS011;45930;53.514;55.904;2023-04-21T04:21:51;11.98;;;7.57;;
60054;SDS011;45930;53.514;55.904;2023-04-21T04:22:52;13.68;;;8.30;;
60054;SDS011;45930;53.514;55.904;2023-04-21T04:23:53;11.65;;;8.27;;
60054;SDS011;45930;53.514;55.904;2023-04-21T04:24:54;12.15;;;8.10;;
60054;SDS011;45930;53.514;55.904;2023-04-21T04:25:56;14.68;;;7.72;;
60054;SDS011;45930;53.514;55.904;2023-04-21T04:26:57;11.73;;;7.07;;
60054;SDS011;45930;53.514;55.904;2023-04-21T04:27:59;14.05;;;6.70;;
60054;SDS011;45930;53.514;55.904;2023-04-21T04:29:00;13.75;;;6.90;;
60054;SDS011;45930;53.514;55.904;2023-04-21T04:30:01;9.85;;;5.70;;
60054;SDS011;45930;53.514;55.904;2023-04-21T04:31:03;14.45;;;6.25;;
60054;SDS011;45930;53.514;55.904;2023-04-21T04:32:04;11.68;;;6.45;;
60054;SDS011;45930;53.514;55.904;2023-04-21T04:33:06;9.88;;;6.72;;
60054;SDS011;45930;53.514;55.904;2023-04-21T04:34:06;12.38;;;5.85;;
60054;SDS011;45930;53.514;55.904;2023-04-21T04:35:08;7.93;;;5.93;;
60054;SDS011;45930;53.514;55.904;2023-04-21T04:36:10;11.38;;;6.28;;
60054;SDS011;45930;53.514;55.904;2023-04-21T04:37:13;7.63;;;5.70;;
60054;SDS011;45930;53.514;55.904;2023-04-21T04:38:14;12.25;;;6.13;;
60054;SDS011;45930;53.514;55.904;2023-04-21T04:39:15;9.43;;;6.45;;
60054;SDS011;45930;53.514;55.904;2023-04-21T04:40:16;12.27;;;6.68;;
60054;SDS011;45930;53.514;55.904;2023-04-21T04:41:18;10.15;;;6.40;;
60054;SDS011;45930;53.514;55.904;2023-04-21T04:42:20;12.50;;;6.70;;
60054;SDS011;45930;53.514;55.904;2023-04-21T04:43:21;10.15;;;6.70;;
60054;SDS011;45930;53.514;55.904;2023-04-21T04:44:22;10.93;;;6.65;;
60054;SDS011;45930;53.514;55.904;2023-04-21T04:45:25;9.57;;;5.60;;
60054;SDS011;45930;53.514;55.904;2023-04-21T04:46:28;12.13;;;6.00;;
60054;SDS011;45930;53.514;55.904;2023-04-21T04:47:28;9.82;;;6.07;;
60054;SDS011;45930;53.514;55.904;2023-04-21T04:48:29;11.20;;;5.28;;
60054;SDS011;45930;53.514;55.904;2023-04-21T04:49:31;9.70;;;5.93;;
60054;SDS011;45930;53.514;55.904;2023-04-21T04:50:32;12.75;;;6.38;;
60054;SDS011;45930;53.514;55.904;2023-04-21T04:51:33;12.50;;;6.57;;
60054;SDS011;45930;53.514;55.904;2023-04-21T04:52:34;13.95;;;7.28;;
60054;SDS011;45930;53.514;55.904;2023-04-21T04:53:34;9.85;;;6.25;;
60054;SDS011;45930;53.514;55.904;2023-04-21T04:54:35;10.95;;;6.85;;
60054;SDS011;45930;53.514;55.904;2023-04-21T04:55:36;11.75;;;6.70;;
60054;SDS011;45930;53.514;55.904;2023-04-21T04:56:37;11.32;;;5.82;;
60054;SDS011;45930;53.514;55.904;2023-04-21T04:57:38;10.30;;;5.63;;
60054;SDS011;45930;53.514;55.904;2023-04-21T04:58:39;11.65;;;6.18;;
60054;SDS011;45930;53.514;55.904;2023-04-21T04:59:40;8.82;;;6.10;;
60054;SDS011;45930;53.514;55.904;2023-04-21T05:00:41;8.50;;;5.75;;
60054;SDS011;45930;53.514;55.904;2023-04-21T05:01:42;9.57;;;5.88;;
60054;SDS011;45930;53.514;55.904;2023-04-21T05:02:43;8.88;;;5.55;;
60054;SDS011;45930;53.514;55.904;2023-04-21T05:03:44;10.65;;;6.07;;
60054;SDS011;45930;53.514;55.904;2023-04-21T05:04:45;14.65;;;6.45;;
60054;SDS011;45930;53.514;55.904;2023-04-21T05:05:45;8.75;;;6.20;;
60054;SDS011;45930;53.514;55.904;2023-04-21T05:06:49;12.43;;;5.90;;
60054;SDS011;45930;53.514;55.904;2023-04-21T05:07:50;9.40;;;5.43;;
60054;SDS011;45930;53.514;55.904;2023-04-21T05:08:51;7.85;;;5.57;;
60054;SDS011;45930;53.514;55.904;2023-04-21T05:09:52;10.35;;;6.05;;
60054;SDS011;45930;53.514;55.904;2023-04-21T05:22:30;10.19;;;5.94;;
60054;SDS011;45930;53.514;55.904;2023-04-21T05:23:33;13.57;;;6.28;;
60054;SDS011;45930;53.514;55.904;2023-04-21T05:24:34;12.23;;;5.20;;
60054;SDS011;45930;53.514;55.904;2023-04-21T05:25:35;11.45;;;5.72;;
60054;SDS011;45930;53.514;55.904;2023-04-21T05:26:37;8.95;;;5.70;;
60054;SDS011;45930;53.514;55.904;2023-04-21T05:27:38;13.00;;;5.72;;
60054;SDS011;45930;53.514;55.904;2023-04-21T05:28:40;10.77;;;5.18;;
60054;SDS011;45930;53.514;55.904;2023-04-21T05:29:40;11.10;;;5.45;;
60054;SDS011;45930;53.514;55.904;2023-04-21T05:30:41;10.50;;;5.82;;
60054;SDS011;45930;53.514;55.904;2023-04-21T05:31:42;8.00;;;5.55;;
60054;SDS011;45930;53.514;55.904;2023-04-21T05:32:43;8.82;;;5.30;;
60054;SDS011;45930;53.514;55.904;2023-04-21T05:33:44;7.88;;;4.90;;
60054;SDS011;45930;53.514;55.904;2023-04-21T05:34:45;8.90;;;6.43;;
60054;SDS011;45930;53.514;55.904;2023-04-21T05:35:46;10.05;;;6.07;;
60054;SDS011;45930;53.514;55.904;2023-04-21T05:36:47;11.60;;;5.57;;
60054;SDS011;45930;53.514;55.904;2023-04-21T05:37:48;11.35;;;6.40;;
60054;SDS011;45930;53.514;55.904;2023-04-21T05:38:49;9.32;;;5.53;;
60054;SDS011;45930;53.514;55.904;2023-04-21T05:39:50;10.00;;;5.13;;
60054;SDS011;45930;53.514;55.904;2023-04-21T05:40:52;8.05;;;5.25;;
60054;SDS011;45930;53.514;55.904;2023-04-21T05:41:54;10.55;;;6.50;;
60054;SDS011;45930;53.514;55.904;2023-04-21T05:42:55;11.20;;;6.25;;
60054;SDS011;45930;53.514;55.904;2023-04-21T05:43:56;10.45;;;5.70;;
60054;SDS011;45930;53.514;55.904;2023-04-21T05:44:57;10.90;;;5.75;;
60054;SDS011;45930;53.514;55.904;2023-04-21T05:45:58;9.30;;;5.78;;
60054;SDS011;45930;53.514;55.904;2023-04-21T05:47:00;9.68;;;5.38;;
60054;SDS011;45930;53.514;55.904;2023-04-21T05:48:01;10.15;;;6.10;;
60054;SDS011;45930;53.514;55.904;2023-04-21T05:49:01;10.98;;;6.25;;
60054;SDS011;45930;53.514;55.904;2023-04-21T05:50:02;7.97;;;6.15;;
60054;SDS011;45930;53.514;55.904;2023-04-21T05:51:07;8.02;;;5.25;;
60054;SDS011;45930;53.514;55.904;2023-04-21T05:52:16;10.27;;;5.68;;
60054;SDS011;45930;53.514;55.904;2023-04-21T05:53:17;8.70;;;6.00;;
60054;SDS011;45930;53.514;55.904;2023-04-21T05:54:18;9.18;;;5.50;;
60054;SDS011;45930;53.514;55.904;2023-04-21T05:55:19;11.18;;;6.70;;
60054;SDS011;45930;53.514;55.904;2023-04-21T05:56:21;9.18;;;5.75;;
60054;SDS011;45930;53.514;55.904;2023-04-21T05:57:22;7.63;;;5.50;;
60054;SDS011;45930;53.514;55.904;2023-04-21T05:58:23;10.45;;;5.75;;
60054;SDS011;45930;53.514;55.904;2023-04-21T05:59:23;9.57;;;6.03;;
60054;SDS011;45930;53.514;55.904;2023-04-21T06:00:25;9.52;;;5.47;;
60054;SDS011;45930;53.514;55.904;2023-04-21T06:01:26;9.30;;;5.93;;
60054;SDS011;45930;53.514;55.904;2023-04-21T06:02:27;9.13;;;5.28;;
60054;SDS011;45930;53.514;55.904;2023-04-21T06:03:31;6.88;;;5.22;;
60054;SDS011;45930;53.514;55.904;2023-04-21T06:04:33;8.65;;;5.32;;
60054;SDS011;45930;53.514;55.904;2023-04-21T06:05:34;10.57;;;4.88;;
60054;SDS011;45930;53.514;55.904;2023-04-21T06:06:35;8.55;;;5.00;;
60054;SDS011;45930;53.514;55.904;2023-04-21T06:07:36;6.15;;;4.78;;
60054;SDS011;45930;53.514;55.904;2023-04-21T06:08:37;12.23;;;5.10;;
60054;SDS011;45930;53.514;55.904;2023-04-21T06:09:38;12.85;;;5.20;;
60054;SDS011;45930;53.514;55.904;2023-04-21T06:10:40;7.28;;;5.18;;
60054;SDS011;45930;53.514;55.904;2023-04-21T06:11:40;8.07;;;4.80;;